createdAt,value
2019-04-27T00:00:10.991Z,0.00
2019-04-27T00:01:10.574Z,0.00
2019-04-27T00:02:09.916Z,0.00
2019-04-27T00:03:09.757Z,0.00
2019-04-27T00:04:11.729Z,0.00
2019-04-27T00:05:09.766Z,0.00
2019-04-27T00:06:09.753Z,0.00
2019-04-27T00:07:09.721Z,0.00
2019-04-27T00:08:09.706Z,0.00
2019-04-27T00:09:11.637Z,0.00
2019-04-27T00:10:13.564Z,0.00
2019-04-27T00:11:11.188Z,0.00
2019-04-27T00:12:10.309Z,0.00
2019-04-27T00:13:10.474Z,0.00
2019-04-27T00:14:10.322Z,0.00
2019-04-27T00:15:09.727Z,0.00
2019-04-27T00:16:11.060Z,0.00
2019-04-27T00:17:12.923Z,0.00
2019-04-27T00:18:13.492Z,0.00
2019-04-27T00:19:10.574Z,0.00
2019-04-27T00:20:10.178Z,0.00
2019-04-27T00:21:10.603Z,0.00
2019-04-27T00:22:09.549Z,0.00
2019-04-27T00:23:09.554Z,0.00
2019-04-27T00:24:09.542Z,0.00
2019-04-27T00:25:09.529Z,0.00
2019-04-27T00:26:09.761Z,0.00
2019-04-27T00:27:09.493Z,0.00
2019-04-27T00:28:10.149Z,0.00
2019-04-27T00:29:09.471Z,0.00
2019-04-27T00:30:09.511Z,0.00
2019-04-27T00:31:09.433Z,0.00
2019-04-27T00:32:09.692Z,0.00
2019-04-27T00:33:09.705Z,0.00
2019-04-27T00:34:10.213Z,0.00
2019-04-27T00:35:10.588Z,0.00
2019-04-27T00:36:09.401Z,0.00
2019-04-27T00:37:09.451Z,0.00
2019-04-27T00:38:11.144Z,0.00
2019-04-27T00:39:09.360Z,0.00
2019-04-27T00:40:09.547Z,0.00
2019-04-27T00:41:09.359Z,0.00
2019-04-27T00:42:09.313Z,0.00
2019-04-27T00:43:09.564Z,0.00
2019-04-27T00:44:09.301Z,0.00
2019-04-27T00:45:09.292Z,0.00
2019-04-27T00:46:09.500Z,0.00
2019-04-27T00:47:09.315Z,0.00
2019-04-27T00:48:09.295Z,0.00
2019-04-27T00:49:09.400Z,0.00
2019-04-27T00:50:09.249Z,0.00
2019-04-27T00:51:09.497Z,0.00
2019-04-27T00:52:09.650Z,0.00
2019-04-27T00:53:09.206Z,0.00
2019-04-27T00:54:09.201Z,0.00
2019-04-27T00:55:09.181Z,0.00
2019-04-27T00:56:09.165Z,0.00
2019-04-27T00:57:09.156Z,0.00
2019-04-27T00:58:09.582Z,0.00
2019-04-27T00:59:11.572Z,0.00
2019-04-27T01:00:10.024Z,0.00
2019-04-27T01:01:09.190Z,0.00
2019-04-27T01:02:09.146Z,0.00
2019-04-27T01:03:09.107Z,0.00
2019-04-27T01:04:09.682Z,0.00
2019-04-27T01:05:09.066Z,0.00
2019-04-27T01:06:09.243Z,0.00
2019-04-27T01:07:14.086Z,0.00
2019-04-27T01:08:09.087Z,0.00
2019-04-27T01:09:09.503Z,0.00
2019-04-27T01:10:09.018Z,0.00
2019-04-27T01:11:09.005Z,0.00
2019-04-27T01:12:09.007Z,0.00
2019-04-27T01:13:08.994Z,0.00
2019-04-27T01:14:09.003Z,0.00
2019-04-27T01:15:09.153Z,0.00
2019-04-27T01:16:10.490Z,0.00
2019-04-27T01:17:08.969Z,0.00
2019-04-27T01:18:13.281Z,0.00
2019-04-27T01:19:10.429Z,0.00
2019-04-27T01:20:10.430Z,0.00
2019-04-27T01:21:09.285Z,0.00
2019-04-27T01:22:08.877Z,0.00
2019-04-27T01:23:10.739Z,0.00
2019-04-27T01:24:08.993Z,0.00
2019-04-27T01:25:09.473Z,0.00
2019-04-27T01:26:09.741Z,0.00
2019-04-27T01:27:09.188Z,0.00
2019-04-27T01:28:11.106Z,0.00
2019-04-27T01:29:10.266Z,0.00
2019-04-27T01:30:08.843Z,0.00
2019-04-27T01:31:09.269Z,0.00
2019-04-27T01:32:09.363Z,0.00
2019-04-27T01:33:09.824Z,0.00
2019-04-27T01:34:09.234Z,0.00
2019-04-27T01:35:08.779Z,0.00
2019-04-27T01:36:10.594Z,0.00
2019-04-27T01:37:09.435Z,0.00
2019-04-27T01:38:09.076Z,0.00
2019-04-27T01:39:08.699Z,0.00
2019-04-27T01:40:09.803Z,0.00
2019-04-27T01:41:09.041Z,0.00
2019-04-27T01:42:10.589Z,0.00
2019-04-27T01:43:09.192Z,0.00
2019-04-27T01:44:09.214Z,0.00
2019-04-27T01:45:08.650Z,0.00
2019-04-27T01:46:09.136Z,0.00
2019-04-27T01:47:10.091Z,0.00
2019-04-27T01:48:22.493Z,0.00
2019-04-27T01:49:10.924Z,0.00
2019-04-27T01:50:08.844Z,0.00
2019-04-27T01:51:09.321Z,0.00
2019-04-27T01:52:09.593Z,0.00
2019-04-27T01:53:09.214Z,0.00
2019-04-27T01:54:10.260Z,0.00
2019-04-27T01:55:08.762Z,0.00
2019-04-27T01:56:09.206Z,0.00
2019-04-27T01:57:10.276Z,0.00
2019-04-27T01:58:10.860Z,0.00
2019-04-27T01:59:09.095Z,0.00
2019-04-27T02:00:09.190Z,0.00
2019-04-27T02:01:09.639Z,0.00
2019-04-27T02:02:08.759Z,0.00
2019-04-27T02:03:08.637Z,0.00
2019-04-27T02:04:09.286Z,0.00
2019-04-27T02:05:09.019Z,0.00
2019-04-27T02:06:09.220Z,0.00
2019-04-27T02:07:09.069Z,0.00
2019-04-27T02:08:09.500Z,0.00
2019-04-27T02:09:08.556Z,0.00
2019-04-27T02:10:09.394Z,0.00
2019-04-27T02:11:09.242Z,0.00
2019-04-27T02:12:09.382Z,0.00
2019-04-27T02:13:09.066Z,0.00
2019-04-27T02:14:09.501Z,0.00
2019-04-27T02:15:08.814Z,0.00
2019-04-27T02:16:09.018Z,0.00
2019-04-27T02:17:09.698Z,0.00
2019-04-27T02:18:09.488Z,0.00
2019-04-27T02:19:11.378Z,0.00
2019-04-27T02:20:09.721Z,0.00
2019-04-27T02:21:09.151Z,0.00
2019-04-27T02:22:08.635Z,0.00
2019-04-27T02:23:09.239Z,0.00
2019-04-27T02:24:09.758Z,0.00
2019-04-27T02:25:09.118Z,0.00
2019-04-27T02:26:08.677Z,0.00
2019-04-27T02:27:09.176Z,0.00
2019-04-27T02:28:09.310Z,0.00
2019-04-27T02:29:08.831Z,0.00
2019-04-27T02:30:11.433Z,0.00
2019-04-27T02:31:09.872Z,0.00
2019-04-27T02:32:10.420Z,0.00
2019-04-27T02:33:12.343Z,0.00
2019-04-27T02:34:09.674Z,0.00
2019-04-27T02:35:09.424Z,0.00
2019-04-27T02:36:14.620Z,0.00
2019-04-27T02:37:10.158Z,0.00
2019-04-27T02:38:10.060Z,0.00
2019-04-27T02:39:14.246Z,0.00
2019-04-27T02:40:10.087Z,0.00
2019-04-27T02:41:10.081Z,0.00
2019-04-27T02:42:10.115Z,0.00
2019-04-27T02:43:10.317Z,0.00
2019-04-27T02:44:09.825Z,0.00
2019-04-27T02:45:09.621Z,0.00
2019-04-27T02:46:09.570Z,0.00
2019-04-27T02:47:10.457Z,0.00
2019-04-27T02:48:09.891Z,0.00
2019-04-27T02:49:10.573Z,0.00
2019-04-27T02:50:10.769Z,0.00
2019-04-27T02:51:10.047Z,0.00
2019-04-27T02:52:09.593Z,0.00
2019-04-27T02:53:11.046Z,0.00
2019-04-27T02:54:12.047Z,0.00
2019-04-27T02:55:09.565Z,0.00
2019-04-27T02:56:10.319Z,0.00
2019-04-27T02:57:10.073Z,0.00
2019-04-27T02:58:12.335Z,0.00
2019-04-27T02:59:09.512Z,0.00
2019-04-27T03:00:10.714Z,0.00
2019-04-27T03:01:10.002Z,0.00
2019-04-27T03:02:10.752Z,0.00
2019-04-27T03:03:10.220Z,0.00
2019-04-27T03:04:10.023Z,0.00
2019-04-27T03:05:12.858Z,0.00
2019-04-27T03:06:09.833Z,0.00
2019-04-27T03:07:11.399Z,0.00
2019-04-27T03:08:10.188Z,0.00
2019-04-27T03:09:10.466Z,0.00
2019-04-27T03:10:09.880Z,0.00
2019-04-27T03:11:09.937Z,0.00
2019-04-27T03:12:10.300Z,0.00
2019-04-27T03:13:11.160Z,0.00
2019-04-27T03:14:20.489Z,0.00
2019-04-27T03:15:10.348Z,0.00
2019-04-27T03:16:08.289Z,0.00
2019-04-27T03:17:09.911Z,4.00
2019-04-27T03:18:10.096Z,4.00
2019-04-27T03:19:14.807Z,4.00
2019-04-27T03:20:10.543Z,4.00
2019-04-27T03:21:13.121Z,4.00
2019-04-27T03:22:09.742Z,4.00
2019-04-27T03:23:09.793Z,8.00
2019-04-27T03:24:09.907Z,8.00
2019-04-27T03:25:10.606Z,12.00
2019-04-27T03:26:10.612Z,12.00
2019-04-27T03:27:09.696Z,16.00
2019-04-27T03:28:10.741Z,20.00
2019-04-27T03:29:14.412Z,24.00
2019-04-27T03:30:12.341Z,28.00
2019-04-27T03:31:12.603Z,32.00
2019-04-27T03:32:12.713Z,36.00
2019-04-27T03:33:11.733Z,40.00
2019-04-27T03:34:15.502Z,44.00
2019-04-27T03:35:12.845Z,52.00
2019-04-27T03:36:12.460Z,56.00
2019-04-27T03:37:10.304Z,60.00
2019-04-27T03:38:12.114Z,68.00
2019-04-27T03:39:10.243Z,76.00
2019-04-27T03:40:10.340Z,88.00
2019-04-27T03:41:09.530Z,96.00
2019-04-27T03:42:10.485Z,104.00
2019-04-27T03:43:09.874Z,112.00
2019-04-27T03:44:09.384Z,124.00
2019-04-27T03:45:10.729Z,136.00
2019-04-27T03:46:10.309Z,148.00
2019-04-27T03:47:10.027Z,164.00
2019-04-27T03:48:10.325Z,180.00
2019-04-27T03:49:09.771Z,200.00
2019-04-27T03:50:10.962Z,220.00
2019-04-27T03:51:10.121Z,240.00
2019-04-27T03:52:09.661Z,264.00
2019-04-27T03:53:10.320Z,280.00
2019-04-27T03:54:10.454Z,300.00
2019-04-27T03:55:10.359Z,316.00
2019-04-27T03:56:10.236Z,336.00
2019-04-27T03:57:09.899Z,344.00
2019-04-27T03:58:11.817Z,348.00
2019-04-27T03:59:10.127Z,352.00
2019-04-27T04:00:10.153Z,364.00
2019-04-27T04:01:11.226Z,376.00
2019-04-27T04:02:10.181Z,388.00
2019-04-27T04:03:10.693Z,392.00
2019-04-27T04:04:10.369Z,408.00
2019-04-27T04:05:09.830Z,432.00
2019-04-27T04:06:10.515Z,456.00
2019-04-27T04:07:09.542Z,480.00
2019-04-27T04:08:10.677Z,500.00
2019-04-27T04:09:10.308Z,508.00
2019-04-27T04:10:10.371Z,520.00
2019-04-27T04:11:10.487Z,528.00
2019-04-27T04:12:09.595Z,572.00
2019-04-27T04:13:10.526Z,624.00
2019-04-27T04:14:10.168Z,676.00
2019-04-27T04:15:09.795Z,712.00
2019-04-27T04:16:07.760Z,744.00
2019-04-27T04:17:06.983Z,756.00
2019-04-27T04:18:09.533Z,724.00
2019-04-27T04:19:10.003Z,764.00
2019-04-27T04:20:06.959Z,784.00
2019-04-27T04:21:09.634Z,788.00
2019-04-27T04:22:06.994Z,808.00
2019-04-27T04:23:06.909Z,816.00
2019-04-27T04:24:11.869Z,848.00
2019-04-27T04:25:10.715Z,788.00
2019-04-27T04:26:09.873Z,892.00
2019-04-27T04:27:06.863Z,940.00
2019-04-27T04:28:09.238Z,932.00
2019-04-27T04:29:06.846Z,1056.00
2019-04-27T04:30:09.994Z,1280.00
2019-04-27T04:31:13.478Z,1228.00
2019-04-27T04:32:10.667Z,1204.00
2019-04-27T04:33:06.793Z,1316.00
2019-04-27T04:34:09.192Z,1192.00
2019-04-27T04:35:10.323Z,1160.00
2019-04-27T04:36:06.762Z,1224.00
2019-04-27T04:37:09.329Z,1124.00
2019-04-27T04:38:06.750Z,1200.00
2019-04-27T04:39:06.859Z,1128.00
2019-04-27T04:40:06.747Z,1004.00
2019-04-27T04:41:09.450Z,1020.00
2019-04-27T04:42:10.259Z,1040.00
2019-04-27T04:43:06.746Z,1232.00
2019-04-27T04:44:06.689Z,1260.00
2019-04-27T04:45:06.670Z,1268.00
2019-04-27T04:46:10.688Z,1340.00
2019-04-27T04:47:10.404Z,1492.00
2019-04-27T04:48:06.665Z,1532.00
2019-04-27T04:49:08.740Z,1564.00
2019-04-27T04:50:14.089Z,1416.00
2019-04-27T04:51:10.128Z,1652.00
2019-04-27T04:52:06.589Z,1608.00
2019-04-27T04:53:12.328Z,1612.00
2019-04-27T04:54:06.573Z,1676.00
2019-04-27T04:55:06.548Z,1652.00
2019-04-27T04:56:08.578Z,1736.00
2019-04-27T04:57:06.767Z,1752.00
2019-04-27T04:58:09.213Z,1820.00
2019-04-27T04:59:06.720Z,1904.00
2019-04-27T05:00:06.536Z,2032.00
2019-04-27T05:01:06.501Z,2200.00
2019-04-27T05:02:06.477Z,2368.00
2019-04-27T05:03:06.750Z,2584.00
2019-04-27T05:04:09.193Z,2748.00
2019-04-27T05:05:09.494Z,2772.00
2019-04-27T05:06:06.447Z,2804.00
2019-04-27T05:07:06.544Z,2768.00
2019-04-27T05:08:06.413Z,2656.00
2019-04-27T05:09:06.740Z,2528.00
2019-04-27T05:10:06.401Z,2456.00
2019-04-27T05:11:06.419Z,2468.00
2019-04-27T05:12:06.365Z,2596.00
2019-04-27T05:13:06.525Z,2876.00
2019-04-27T05:14:07.188Z,3256.00
2019-04-27T05:15:09.163Z,3656.00
2019-04-27T05:16:06.320Z,3848.00
2019-04-27T05:17:06.399Z,4160.00
2019-04-27T05:18:06.303Z,4372.00
2019-04-27T05:19:06.297Z,4356.00
2019-04-27T05:20:06.289Z,4172.00
2019-04-27T05:21:08.677Z,3948.00
2019-04-27T05:22:06.275Z,3728.00
2019-04-27T05:23:06.260Z,3492.00
2019-04-27T05:24:06.430Z,3356.00
2019-04-27T05:25:06.248Z,3220.00
2019-04-27T05:26:06.790Z,3140.00
2019-04-27T05:27:06.657Z,3128.00
2019-04-27T05:28:06.631Z,3292.00
2019-04-27T05:29:06.198Z,3552.00
2019-04-27T05:30:06.419Z,3912.00
2019-04-27T05:31:06.178Z,4408.00
2019-04-27T05:32:06.510Z,4924.00
2019-04-27T05:33:06.607Z,5052.00
2019-04-27T05:34:06.864Z,5580.00
2019-04-27T05:35:06.127Z,6048.00
2019-04-27T05:36:06.129Z,6220.00
2019-04-27T05:37:06.140Z,5856.00
2019-04-27T05:38:12.779Z,5048.00
2019-04-27T05:39:09.830Z,4344.00
2019-04-27T05:40:06.146Z,4712.00
2019-04-27T05:41:06.140Z,5520.00
2019-04-27T05:42:06.129Z,5500.00
2019-04-27T05:43:09.683Z,5640.00
2019-04-27T05:44:07.754Z,6084.00
2019-04-27T05:45:06.403Z,6412.00
2019-04-27T05:46:06.102Z,6668.00
2019-04-27T05:47:11.759Z,7092.00
2019-04-27T05:48:09.396Z,7656.00
2019-04-27T05:49:07.776Z,7984.00
2019-04-27T05:50:06.142Z,8060.00
2019-04-27T05:51:06.309Z,7900.00
2019-04-27T05:52:13.518Z,7692.00
2019-04-27T05:53:08.576Z,7536.00
2019-04-27T05:54:06.580Z,7408.00
2019-04-27T05:55:05.907Z,7132.00
2019-04-27T05:56:06.313Z,7204.00
2019-04-27T05:57:05.865Z,7136.00
2019-04-27T05:58:05.872Z,6952.00
2019-04-27T05:59:05.884Z,6836.00
2019-04-27T06:00:06.287Z,6816.00
2019-04-27T06:01:10.868Z,6728.00
2019-04-27T06:02:05.918Z,6540.00
2019-04-27T06:03:05.817Z,6724.00
2019-04-27T06:04:09.129Z,6660.00
2019-04-27T06:05:05.806Z,6536.00
2019-04-27T06:06:06.821Z,6508.00
2019-04-27T06:07:05.857Z,6408.00
2019-04-27T06:08:08.626Z,6684.00
2019-04-27T06:09:05.747Z,6940.00
2019-04-27T06:10:05.733Z,7196.00
2019-04-27T06:11:05.721Z,7580.00
2019-04-27T06:12:05.727Z,8032.00
2019-04-27T06:13:06.192Z,8504.00
2019-04-27T06:14:05.676Z,9024.00
2019-04-27T06:15:05.680Z,9480.00
2019-04-27T06:16:05.691Z,9844.00
2019-04-27T06:17:05.686Z,10144.00
2019-04-27T06:18:06.648Z,10392.00
2019-04-27T06:19:06.269Z,10632.00
2019-04-27T06:20:05.613Z,10760.00
2019-04-27T06:21:05.669Z,10772.00
2019-04-27T06:22:05.601Z,10756.00
2019-04-27T06:23:05.597Z,10784.00
2019-04-27T06:24:05.842Z,10832.00
2019-04-27T06:25:06.533Z,10824.00
2019-04-27T06:26:05.555Z,10948.00
2019-04-27T06:27:05.551Z,11120.00
2019-04-27T06:28:05.538Z,11260.00
2019-04-27T06:29:05.519Z,11504.00
2019-04-27T06:30:05.791Z,11928.00
2019-04-27T06:31:05.748Z,12072.00
2019-04-27T06:32:05.519Z,12716.00
2019-04-27T06:33:05.482Z,13440.00
2019-04-27T06:34:05.506Z,13896.00
2019-04-27T06:35:05.491Z,14576.00
2019-04-27T06:36:06.232Z,14740.00
2019-04-27T06:37:05.438Z,14876.00
2019-04-27T06:38:05.453Z,14200.00
2019-04-27T06:39:05.416Z,13524.00
2019-04-27T06:40:05.417Z,13172.00
2019-04-27T06:41:05.638Z,11712.00
2019-04-27T06:42:16.037Z,11044.00
2019-04-27T06:43:08.493Z,10404.00
2019-04-27T06:44:05.354Z,9940.00
2019-04-27T06:45:05.339Z,10084.00
2019-04-27T06:46:05.684Z,10420.00
2019-04-27T06:47:05.706Z,11048.00
2019-04-27T06:48:05.317Z,11636.00
2019-04-27T06:49:05.296Z,11184.00
2019-04-27T06:50:05.301Z,11788.00
2019-04-27T06:51:05.867Z,13028.00
2019-04-27T06:52:05.268Z,13692.00
2019-04-27T06:53:05.805Z,13520.00
2019-04-27T06:54:05.643Z,13552.00
2019-04-27T06:55:06.338Z,12812.00
2019-04-27T06:56:05.228Z,11848.00
2019-04-27T06:57:05.204Z,11356.00
2019-04-27T06:58:05.210Z,12008.00
2019-04-27T06:59:05.181Z,12200.00
2019-04-27T07:00:05.583Z,12260.00
2019-04-27T07:01:05.170Z,12300.00
2019-04-27T07:02:05.179Z,12516.00
2019-04-27T07:03:05.161Z,12716.00
2019-04-27T07:04:05.128Z,12852.00
2019-04-27T07:05:06.049Z,12908.00
2019-04-27T07:06:05.130Z,12616.00
2019-04-27T07:07:05.109Z,12308.00
2019-04-27T07:08:05.178Z,12024.00
2019-04-27T07:09:05.075Z,11648.00
2019-04-27T07:10:05.206Z,11016.00
2019-04-27T07:11:05.318Z,10280.00
2019-04-27T07:12:05.103Z,9896.00
2019-04-27T07:13:05.029Z,9732.00
2019-04-27T07:14:05.032Z,9468.00
2019-04-27T07:15:08.880Z,11580.00
2019-04-27T07:16:05.478Z,13748.00
2019-04-27T07:17:05.293Z,15592.00
2019-04-27T07:18:04.972Z,16864.00
2019-04-27T07:19:04.969Z,16992.00
2019-04-27T07:20:04.952Z,16768.00
2019-04-27T07:21:16.254Z,15688.00
2019-04-27T07:22:06.656Z,15276.00
2019-04-27T07:23:04.999Z,15920.00
2019-04-27T07:24:04.926Z,16992.00
2019-04-27T07:25:05.023Z,16640.00
2019-04-27T07:26:05.965Z,15352.00
2019-04-27T07:27:05.914Z,14372.00
2019-04-27T07:28:04.897Z,13944.00
2019-04-27T07:29:04.875Z,14464.00
2019-04-27T07:30:05.213Z,14160.00
2019-04-27T07:31:05.423Z,13540.00
2019-04-27T07:32:05.535Z,15172.00
2019-04-27T07:33:08.621Z,17920.00
2019-04-27T07:34:04.799Z,19424.00
2019-04-27T07:35:04.785Z,19456.00
2019-04-27T07:36:06.797Z,21408.00
2019-04-27T07:37:04.788Z,21312.00
2019-04-27T07:38:05.243Z,19488.00
2019-04-27T07:39:05.056Z,18048.00
2019-04-27T07:40:04.772Z,19104.00
2019-04-27T07:41:04.721Z,19072.00
2019-04-27T07:42:04.860Z,19648.00
2019-04-27T07:43:04.705Z,19264.00
2019-04-27T07:44:05.645Z,18144.00
2019-04-27T07:45:04.676Z,19040.00
2019-04-27T07:46:04.672Z,23456.00
2019-04-27T07:47:04.689Z,24352.00
2019-04-27T07:48:04.650Z,25312.00
2019-04-27T07:49:04.853Z,28896.00
2019-04-27T07:50:04.642Z,29632.00
2019-04-27T07:51:04.606Z,29184.00
2019-04-27T07:52:04.605Z,24800.00
2019-04-27T07:53:04.599Z,30752.00
2019-04-27T07:54:04.575Z,28128.00
2019-04-27T07:55:04.766Z,28448.00
2019-04-27T07:56:04.572Z,30720.00
2019-04-27T07:57:05.529Z,29632.00
2019-04-27T07:58:05.207Z,28128.00
2019-04-27T07:59:04.721Z,25824.00
2019-04-27T08:00:11.376Z,24992.00
2019-04-27T08:01:05.141Z,24736.00
2019-04-27T08:02:04.712Z,24576.00
2019-04-27T08:03:04.486Z,23648.00
2019-04-27T08:04:04.468Z,19360.00
2019-04-27T08:05:04.456Z,18240.00
2019-04-27T08:06:04.750Z,17312.00
2019-04-27T08:07:04.736Z,16704.00
2019-04-27T08:08:04.555Z,16288.00
2019-04-27T08:09:04.405Z,16224.00
2019-04-27T08:10:04.452Z,15896.00
2019-04-27T08:11:04.383Z,15868.00
2019-04-27T08:12:04.698Z,16320.00
2019-04-27T08:13:04.392Z,17024.00
2019-04-27T08:14:04.431Z,17504.00
2019-04-27T08:15:04.342Z,18240.00
2019-04-27T08:16:04.490Z,18656.00
2019-04-27T08:17:04.327Z,18560.00
2019-04-27T08:18:05.575Z,18592.00
2019-04-27T08:19:04.294Z,18848.00
2019-04-27T08:20:04.282Z,19200.00
2019-04-27T08:21:04.278Z,19520.00
2019-04-27T08:22:04.265Z,19776.00
2019-04-27T08:23:04.280Z,20256.00
2019-04-27T08:24:05.029Z,20320.00
2019-04-27T08:25:04.327Z,20128.00
2019-04-27T08:26:04.238Z,19488.00
2019-04-27T08:27:04.456Z,19776.00
2019-04-27T08:28:04.198Z,19872.00
2019-04-27T08:29:04.832Z,20832.00
2019-04-27T08:30:04.184Z,22688.00
2019-04-27T08:31:04.524Z,23488.00
2019-04-27T08:32:04.226Z,23200.00
2019-04-27T08:33:04.474Z,23392.00
2019-04-27T08:34:04.206Z,23392.00
2019-04-27T08:35:05.250Z,23456.00
2019-04-27T08:36:04.597Z,24672.00
2019-04-27T08:37:04.185Z,25536.00
2019-04-27T08:38:04.178Z,26272.00
2019-04-27T08:39:04.186Z,27424.00
2019-04-27T08:40:04.162Z,33184.00
2019-04-27T08:41:04.823Z,39424.00
2019-04-27T08:42:04.177Z,45952.00
2019-04-27T08:43:04.196Z,42432.00
2019-04-27T08:44:04.334Z,48224.00
2019-04-27T08:45:04.167Z,57376.00
2019-04-27T08:46:04.783Z,50496.00
2019-04-27T08:47:06.544Z,53088.00
2019-04-27T08:48:04.335Z,48544.00
2019-04-27T08:49:03.965Z,37824.00
2019-04-27T08:50:04.361Z,37792.00
2019-04-27T08:51:03.940Z,36000.00
2019-04-27T08:52:04.888Z,36832.00
2019-04-27T08:53:04.328Z,45440.00
2019-04-27T08:54:03.903Z,57408.00
2019-04-27T08:55:03.897Z,47552.00
2019-04-27T08:56:03.896Z,52416.00
2019-04-27T08:57:03.869Z,37856.00
2019-04-27T08:58:03.861Z,42656.00
2019-04-27T08:59:04.715Z,52640.00
2019-04-27T09:00:03.846Z,33216.00
2019-04-27T09:01:03.861Z,37632.00
2019-04-27T09:02:03.816Z,37152.00
2019-04-27T09:03:03.920Z,41760.00
2019-04-27T09:04:04.387Z,80896.00
2019-04-27T09:05:03.938Z,46688.00
2019-04-27T09:06:03.801Z,47744.00
2019-04-27T09:07:03.895Z,47104.00
2019-04-27T09:08:05.599Z,39296.00
2019-04-27T09:09:03.772Z,55840.00
2019-04-27T09:10:04.483Z,54304.00
2019-04-27T09:11:03.736Z,49056.00
2019-04-27T09:12:03.729Z,47648.00
2019-04-27T09:13:04.937Z,45856.00
2019-04-27T09:14:04.573Z,50368.00
2019-04-27T09:15:03.683Z,48192.00
2019-04-27T09:16:04.401Z,43936.00
2019-04-27T09:17:03.659Z,49184.00
2019-04-27T09:18:03.660Z,52928.00
2019-04-27T09:19:03.635Z,68992.00
2019-04-27T09:20:03.737Z,85088.00
2019-04-27T09:21:03.610Z,71168.00
2019-04-27T09:22:13.573Z,81280.00
2019-04-27T09:23:04.672Z,72064.00
2019-04-27T09:24:03.912Z,66208.00
2019-04-27T09:25:03.586Z,65344.00
2019-04-27T09:26:03.564Z,62400.00
2019-04-27T09:27:03.757Z,52032.00
2019-04-27T09:28:03.532Z,54848.00
2019-04-27T09:29:05.220Z,48832.00
2019-04-27T09:30:03.509Z,39104.00
2019-04-27T09:31:03.516Z,35360.00
2019-04-27T09:32:03.514Z,41504.00
2019-04-27T09:33:03.757Z,44320.00
2019-04-27T09:34:03.490Z,35712.00
2019-04-27T09:35:03.514Z,29888.00
2019-04-27T09:36:03.456Z,28160.00
2019-04-27T09:37:03.594Z,26688.00
2019-04-27T09:38:03.435Z,25152.00
2019-04-27T09:39:03.905Z,24864.00
2019-04-27T09:40:03.414Z,25280.00
2019-04-27T09:41:03.453Z,24288.00
2019-04-27T09:42:03.388Z,23040.00
2019-04-27T09:43:03.384Z,22080.00
2019-04-27T09:44:03.379Z,21312.00
2019-04-27T09:45:04.077Z,21152.00
2019-04-27T09:46:03.348Z,21504.00
2019-04-27T09:47:03.334Z,21792.00
2019-04-27T09:48:03.327Z,23200.00
2019-04-27T09:49:03.311Z,24192.00
2019-04-27T09:50:05.771Z,25536.00
2019-04-27T09:51:03.741Z,25632.00
2019-04-27T09:52:03.323Z,24992.00
2019-04-27T09:53:03.260Z,24704.00
2019-04-27T09:54:03.361Z,25088.00
2019-04-27T09:55:03.249Z,25344.00
2019-04-27T09:56:03.236Z,25664.00
2019-04-27T09:57:06.924Z,25632.00
2019-04-27T09:58:05.661Z,25824.00
2019-04-27T09:59:03.198Z,26880.00
2019-04-27T10:00:03.675Z,27168.00
2019-04-27T10:01:03.176Z,29056.00
2019-04-27T10:02:03.330Z,30272.00
2019-04-27T10:03:03.156Z,31616.00
2019-04-27T10:04:03.169Z,33696.00
2019-04-27T10:05:03.140Z,36704.00
2019-04-27T10:06:05.874Z,36640.00
2019-04-27T10:07:03.124Z,38304.00
2019-04-27T10:08:03.338Z,39584.00
2019-04-27T10:09:03.178Z,39264.00
2019-04-27T10:10:03.110Z,42048.00
2019-04-27T10:11:03.263Z,44352.00
2019-04-27T10:12:03.064Z,41952.00
2019-04-27T10:13:03.164Z,43552.00
2019-04-27T10:14:03.289Z,44288.00
2019-04-27T10:15:03.020Z,43520.00
2019-04-27T10:16:03.013Z,43200.00
2019-04-27T10:17:03.012Z,43904.00
2019-04-27T10:18:02.998Z,43264.00
2019-04-27T10:19:09.264Z,43232.00
2019-04-27T10:20:02.965Z,43360.00
2019-04-27T10:21:03.933Z,45472.00
2019-04-27T10:22:02.983Z,50336.00
2019-04-27T10:23:02.933Z,51712.00
2019-04-27T10:24:03.153Z,49856.00
2019-04-27T10:25:02.938Z,49504.00
2019-04-27T10:26:02.999Z,45728.00
2019-04-27T10:27:03.333Z,45344.00
2019-04-27T10:28:02.982Z,39936.00
2019-04-27T10:29:03.438Z,39968.00
2019-04-27T10:30:02.881Z,38336.00
2019-04-27T10:31:03.193Z,41696.00
2019-04-27T10:32:03.864Z,39072.00
2019-04-27T10:33:02.834Z,36032.00
2019-04-27T10:34:02.830Z,33952.00
2019-04-27T10:35:02.823Z,32832.00
2019-04-27T10:36:06.529Z,34528.00
2019-04-27T10:37:02.983Z,34336.00
2019-04-27T10:38:03.503Z,34816.00
2019-04-27T10:39:02.764Z,34912.00
2019-04-27T10:40:06.133Z,33984.00
2019-04-27T10:41:02.751Z,33632.00
2019-04-27T10:42:02.757Z,35648.00
2019-04-27T10:43:03.281Z,44192.00
2019-04-27T10:44:02.718Z,41184.00
2019-04-27T10:45:02.887Z,41984.00
2019-04-27T10:46:02.700Z,39424.00
2019-04-27T10:47:02.767Z,35008.00
2019-04-27T10:48:02.692Z,31968.00
2019-04-27T10:49:03.435Z,29888.00
2019-04-27T10:50:02.643Z,28224.00
2019-04-27T10:51:02.637Z,29952.00
2019-04-27T10:52:02.632Z,35328.00
2019-04-27T10:53:02.635Z,45568.00
2019-04-27T10:54:02.602Z,45024.00
2019-04-27T10:55:02.847Z,45920.00
2019-04-27T10:56:03.059Z,56672.00
2019-04-27T10:57:02.579Z,58432.00
2019-04-27T10:58:02.592Z,54112.00
2019-04-27T10:59:02.577Z,97440.00
2019-04-27T11:00:02.679Z,60512.00
2019-04-27T11:01:05.671Z,61952.00
2019-04-27T11:02:02.603Z,46624.00
2019-04-27T11:03:02.585Z,100320.00
2019-04-27T11:04:02.516Z,55808.00
2019-04-27T11:05:02.500Z,62656.00
2019-04-27T11:06:03.018Z,65888.00
2019-04-27T11:07:02.740Z,55648.00
2019-04-27T11:08:02.466Z,48576.00
2019-04-27T11:09:02.518Z,58656.00
2019-04-27T11:10:02.444Z,42784.00
2019-04-27T11:11:02.513Z,63136.00
2019-04-27T11:12:02.830Z,68864.00
2019-04-27T11:13:03.247Z,69088.00
2019-04-27T11:14:02.390Z,61184.00
2019-04-27T11:15:02.566Z,73696.00
2019-04-27T11:16:02.383Z,73920.00
2019-04-27T11:17:02.963Z,65216.00
2019-04-27T11:18:02.363Z,84832.00
2019-04-27T11:19:03.141Z,56512.00
2019-04-27T11:20:02.835Z,50976.00
2019-04-27T11:21:02.784Z,61504.00
2019-04-27T11:22:02.753Z,66944.00
2019-04-27T11:23:09.382Z,59296.00
2019-04-27T11:24:04.202Z,61536.00
2019-04-27T11:25:02.277Z,51328.00
2019-04-27T11:26:02.570Z,48320.00
2019-04-27T11:27:02.255Z,54944.00
2019-04-27T11:28:02.394Z,60224.00
2019-04-27T11:29:02.268Z,30816.00
2019-04-27T11:30:08.554Z,30304.00
2019-04-27T11:31:02.227Z,34784.00
2019-04-27T11:32:02.473Z,39616.00
2019-04-27T11:33:02.208Z,37408.00
2019-04-27T11:34:02.523Z,40064.00
2019-04-27T11:35:03.653Z,43904.00
2019-04-27T11:36:02.522Z,47392.00
2019-04-27T11:37:02.226Z,54208.00
2019-04-27T11:38:02.452Z,53152.00
2019-04-27T11:39:02.230Z,64704.00
2019-04-27T11:40:05.515Z,55904.00
2019-04-27T11:41:02.407Z,68864.00
2019-04-27T11:42:02.257Z,81568.00
2019-04-27T11:43:02.278Z,58624.00
2019-04-27T11:44:03.127Z,61056.00
2019-04-27T11:45:02.288Z,62624.00
2019-04-27T11:46:02.308Z,65344.00
2019-04-27T11:47:02.261Z,97728.00
2019-04-27T11:48:02.387Z,97696.00
2019-04-27T11:49:02.326Z,101344.00
2019-04-27T11:50:02.851Z,64224.00
2019-04-27T11:51:06.944Z,82272.00
2019-04-27T11:52:02.944Z,64672.00
2019-04-27T11:53:02.313Z,112448.00
2019-04-27T11:54:02.201Z,79680.00
2019-04-27T11:55:01.991Z,89856.00
2019-04-27T11:56:02.683Z,87872.00
2019-04-27T11:57:02.358Z,94592.00
2019-04-27T11:58:01.992Z,78432.00
2019-04-27T11:59:01.943Z,95040.00
2019-04-27T12:00:04.987Z,95584.00
2019-04-27T12:01:01.916Z,127776.00
2019-04-27T12:02:01.895Z,95392.00
2019-04-27T12:03:01.872Z,119872.00
2019-04-27T12:04:01.885Z,124544.00
2019-04-27T12:05:02.944Z,82976.00
2019-04-27T12:06:01.911Z,76512.00
2019-04-27T12:07:01.851Z,36032.00
2019-04-27T12:08:02.151Z,34144.00
2019-04-27T12:09:01.825Z,30336.00
2019-04-27T12:10:01.872Z,25920.00
2019-04-27T12:11:02.238Z,22272.00
2019-04-27T12:12:13.534Z,20672.00
2019-04-27T12:13:03.033Z,21344.00
2019-04-27T12:14:01.760Z,25088.00
2019-04-27T12:15:01.919Z,23744.00